createdAt,value
2019-05-19T00:00:46.508Z,14.80
2019-05-19T00:03:14.765Z,14.80
2019-05-19T00:05:43.039Z,14.70
2019-05-19T00:08:11.340Z,14.60
2019-05-19T00:10:39.626Z,14.60
2019-05-19T00:13:07.935Z,14.60
2019-05-19T00:15:36.181Z,14.60
2019-05-19T00:18:04.504Z,14.60
2019-05-19T00:20:32.785Z,14.50
2019-05-19T00:23:01.085Z,14.60
2019-05-19T00:25:29.428Z,14.60
2019-05-19T00:27:57.896Z,14.60
2019-05-19T00:30:26.167Z,14.50
2019-05-19T00:32:54.434Z,14.50
2019-05-19T00:35:22.703Z,14.40
2019-05-19T00:37:51.060Z,14.30
2019-05-19T00:40:19.376Z,14.30
2019-05-19T00:42:47.644Z,14.30
2019-05-19T00:45:15.877Z,14.30
2019-05-19T00:47:44.155Z,14.30
2019-05-19T00:50:12.397Z,14.40
2019-05-19T00:52:40.711Z,14.30
2019-05-19T00:55:08.967Z,14.30
2019-05-19T00:57:37.283Z,14.10
2019-05-19T01:00:07.459Z,14.10
2019-05-19T01:02:35.709Z,14.10
2019-05-19T01:05:06.377Z,14.00
2019-05-19T01:07:34.708Z,14.00
2019-05-19T01:10:03.756Z,14.00
2019-05-19T01:12:32.123Z,14.00
2019-05-19T01:15:00.358Z,14.00
2019-05-19T01:17:28.629Z,14.10
2019-05-19T01:19:57.041Z,14.00
2019-05-19T01:22:25.345Z,13.90
2019-05-19T01:24:53.584Z,13.80
2019-05-19T01:27:21.856Z,13.80
2019-05-19T01:29:50.103Z,13.80
2019-05-19T01:32:18.391Z,13.90
2019-05-19T01:34:46.640Z,13.80
2019-05-19T01:37:14.907Z,13.80
2019-05-19T01:39:43.153Z,13.70
2019-05-19T01:42:11.427Z,13.70
2019-05-19T01:44:39.722Z,13.70
2019-05-19T01:47:08.347Z,13.70
2019-05-19T01:49:36.694Z,13.70
2019-05-19T01:52:05.018Z,13.60
2019-05-19T01:54:33.308Z,13.50
2019-05-19T01:57:01.605Z,13.30
2019-05-19T01:59:29.867Z,13.20
2019-05-19T02:01:58.094Z,13.10
2019-05-19T02:04:26.387Z,13.00
2019-05-19T02:06:54.683Z,12.90
2019-05-19T02:09:22.954Z,13.00
2019-05-19T02:11:51.206Z,13.00
2019-05-19T02:14:19.474Z,12.90
2019-05-19T02:16:47.697Z,12.80
2019-05-19T02:19:15.959Z,12.70
2019-05-19T02:21:44.232Z,12.70
2019-05-19T02:24:12.486Z,12.60
2019-05-19T02:26:40.728Z,12.50
2019-05-19T02:29:08.954Z,12.50
2019-05-19T02:31:37.244Z,12.50
2019-05-19T02:34:05.494Z,12.60
2019-05-19T02:36:33.754Z,12.50
2019-05-19T02:39:02.077Z,12.50
2019-05-19T02:41:30.348Z,12.50
2019-05-19T02:43:58.593Z,12.40
2019-05-19T02:46:26.908Z,12.30
2019-05-19T02:48:55.183Z,12.30
2019-05-19T02:51:23.442Z,12.30
2019-05-19T02:53:51.671Z,12.20
2019-05-19T02:56:20.043Z,12.30
2019-05-19T02:58:48.289Z,12.20
2019-05-19T03:01:16.544Z,12.30
2019-05-19T03:03:44.794Z,12.30
2019-05-19T03:06:13.027Z,12.40
2019-05-19T03:08:41.290Z,12.40
2019-05-19T03:11:09.547Z,12.30
2019-05-19T03:13:37.813Z,12.40
2019-05-19T03:16:06.056Z,12.20
2019-05-19T03:18:34.299Z,12.20
2019-05-19T03:21:11.044Z,12.20
2019-05-19T03:23:32.521Z,12.20
2019-05-19T03:26:00.764Z,12.30
2019-05-19T03:28:29.014Z,12.20
2019-05-19T03:30:58.961Z,12.10
2019-05-19T03:33:28.950Z,12.20
2019-05-19T03:35:57.250Z,12.10
2019-05-19T03:38:25.492Z,12.10
2019-05-19T03:40:53.725Z,12.10
2019-05-19T03:43:21.984Z,12.20
2019-05-19T03:45:50.226Z,12.20
2019-05-19T03:48:18.475Z,12.20
2019-05-19T03:50:46.728Z,12.20
2019-05-19T03:53:14.981Z,12.20
2019-05-19T03:55:43.267Z,12.20
2019-05-19T03:58:11.544Z,12.30
2019-05-19T04:00:39.789Z,12.30
2019-05-19T04:03:08.027Z,12.30
2019-05-19T04:05:36.355Z,12.40
2019-05-19T04:08:04.615Z,12.30
2019-05-19T04:10:32.934Z,12.30
2019-05-19T04:13:01.175Z,12.40
2019-05-19T04:15:29.444Z,12.40
2019-05-19T04:17:57.781Z,12.30
2019-05-19T04:20:26.024Z,12.40
2019-05-19T04:22:54.268Z,12.30
2019-05-19T04:25:22.586Z,12.30
2019-05-19T04:27:50.860Z,12.30
2019-05-19T04:30:19.130Z,12.30
2019-05-19T04:32:47.377Z,12.30
2019-05-19T04:35:15.636Z,12.40
2019-05-19T04:37:43.902Z,12.30
2019-05-19T04:40:12.140Z,12.30
2019-05-19T04:42:40.394Z,12.20
2019-05-19T04:45:08.737Z,12.20
2019-05-19T04:47:36.981Z,12.20
2019-05-19T04:50:07.921Z,12.20
2019-05-19T04:52:36.262Z,12.20
2019-05-19T04:55:05.128Z,12.20
2019-05-19T04:57:33.737Z,12.30
2019-05-19T05:00:02.045Z,12.30
2019-05-19T05:02:30.335Z,12.40
2019-05-19T05:04:58.570Z,12.50
2019-05-19T05:07:26.826Z,12.50
2019-05-19T05:09:55.090Z,12.60
2019-05-19T05:12:23.328Z,12.60
2019-05-19T05:14:51.587Z,12.70
2019-05-19T05:17:19.844Z,12.70
2019-05-19T05:19:48.196Z,12.70
2019-05-19T05:22:22.182Z,12.80
2019-05-19T05:24:46.428Z,12.70
2019-05-19T05:27:14.692Z,12.80
2019-05-19T05:29:42.969Z,12.80
2019-05-19T05:32:11.238Z,12.80
2019-05-19T05:34:39.494Z,12.90
2019-05-19T05:37:07.776Z,13.00
2019-05-19T05:39:36.109Z,13.00
2019-05-19T05:42:04.384Z,13.00
2019-05-19T05:44:32.702Z,13.10
2019-05-19T05:47:00.954Z,13.10
2019-05-19T05:49:29.223Z,13.10
2019-05-19T05:51:57.501Z,13.20
2019-05-19T05:54:25.760Z,13.20
2019-05-19T05:56:54.033Z,13.30
2019-05-19T05:59:22.273Z,13.40
2019-05-19T06:01:50.561Z,13.40
2019-05-19T06:04:18.824Z,13.50
2019-05-19T06:06:47.069Z,13.60
2019-05-19T06:09:15.372Z,13.70
2019-05-19T06:11:43.692Z,13.60
2019-05-19T06:14:11.961Z,13.70
2019-05-19T06:16:40.226Z,13.80
2019-05-19T06:19:08.480Z,13.90
2019-05-19T06:21:36.741Z,13.90
2019-05-19T06:24:05.038Z,13.90
2019-05-19T06:26:33.285Z,14.00
2019-05-19T06:29:01.539Z,14.00
2019-05-19T06:31:29.800Z,14.10
2019-05-19T06:33:58.089Z,14.10
2019-05-19T06:36:26.341Z,14.20
2019-05-19T06:38:54.597Z,14.20
2019-05-19T06:41:22.863Z,14.20
2019-05-19T06:43:51.104Z,14.30
2019-05-19T06:46:19.383Z,14.30
2019-05-19T06:48:47.642Z,14.30
2019-05-19T06:51:15.909Z,14.40
2019-05-19T06:53:44.155Z,14.40
2019-05-19T06:56:12.415Z,14.40
2019-05-19T06:58:40.660Z,14.50
2019-05-19T07:01:08.903Z,14.50
2019-05-19T07:03:37.176Z,14.60
2019-05-19T07:06:05.494Z,14.60
2019-05-19T07:08:33.808Z,14.70
2019-05-19T07:11:02.081Z,14.80
2019-05-19T07:13:30.356Z,14.80
2019-05-19T07:15:58.673Z,14.90
2019-05-19T07:18:26.917Z,15.00
2019-05-19T07:20:55.173Z,15.00
2019-05-19T07:23:28.334Z,15.00
2019-05-19T07:25:53.421Z,15.10
2019-05-19T07:28:21.677Z,15.10
2019-05-19T07:30:49.937Z,15.10
2019-05-19T07:33:18.183Z,15.20
2019-05-19T07:35:46.451Z,15.30
2019-05-19T07:38:14.697Z,15.30
2019-05-19T07:40:42.958Z,15.30
2019-05-19T07:43:11.220Z,15.40
2019-05-19T07:45:39.468Z,15.50
2019-05-19T07:48:07.736Z,15.50
2019-05-19T07:50:38.181Z,15.50
2019-05-19T07:53:05.990Z,15.60
2019-05-19T07:55:34.268Z,15.60
2019-05-19T07:58:02.515Z,15.80
2019-05-19T08:00:30.891Z,15.80
2019-05-19T08:02:59.224Z,15.90
2019-05-19T08:05:27.536Z,16.00
2019-05-19T08:07:55.812Z,16.00
2019-05-19T08:10:24.137Z,16.10
2019-05-19T08:12:52.398Z,16.20
2019-05-19T08:15:20.647Z,16.20
2019-05-19T08:17:48.925Z,16.30
2019-05-19T08:20:17.195Z,16.30
2019-05-19T08:22:45.779Z,16.40
2019-05-19T08:25:14.136Z,16.40
2019-05-19T08:27:42.376Z,16.50
2019-05-19T08:30:11.216Z,16.50
2019-05-19T08:32:39.449Z,16.60
2019-05-19T08:35:07.716Z,16.50
2019-05-19T08:37:35.959Z,16.60
2019-05-19T08:40:04.549Z,16.70
2019-05-19T08:42:32.779Z,16.80
2019-05-19T08:45:01.043Z,16.80
2019-05-19T08:47:29.297Z,16.90
2019-05-19T08:49:57.534Z,17.00
2019-05-19T08:52:25.800Z,17.10
2019-05-19T08:54:54.045Z,17.10
2019-05-19T08:57:22.292Z,17.20
2019-05-19T08:59:50.542Z,17.20
2019-05-19T09:02:18.879Z,17.30
2019-05-19T09:04:47.140Z,17.40
2019-05-19T09:07:15.416Z,17.40
2019-05-19T09:09:43.659Z,17.50
2019-05-19T09:12:11.933Z,17.60
2019-05-19T09:14:40.186Z,17.70
2019-05-19T09:17:08.461Z,17.80
2019-05-19T09:19:36.719Z,17.80
2019-05-19T09:22:05.040Z,17.90
2019-05-19T09:24:33.363Z,18.00
2019-05-19T09:27:01.650Z,18.10
2019-05-19T09:29:29.932Z,18.20
2019-05-19T09:31:58.206Z,18.20
2019-05-19T09:34:26.464Z,18.30
2019-05-19T09:36:54.778Z,18.40
2019-05-19T09:39:23.054Z,18.40
2019-05-19T09:41:51.299Z,18.40
2019-05-19T09:44:19.527Z,18.40
2019-05-19T09:46:47.790Z,18.50
2019-05-19T09:49:36.101Z,18.50
2019-05-19T09:52:05.294Z,18.60
2019-05-19T09:54:44.806Z,18.70
2019-05-19T09:57:03.590Z,18.80
2019-05-19T09:59:31.861Z,18.80
2019-05-19T10:02:00.103Z,18.90
2019-05-19T10:04:28.333Z,18.90
2019-05-19T10:06:56.636Z,19.00
2019-05-19T10:09:52.275Z,19.10
2019-05-19T10:12:20.517Z,19.20
2019-05-19T10:14:48.803Z,19.30
2019-05-19T10:17:17.037Z,19.40
2019-05-19T10:19:45.282Z,19.50
2019-05-19T10:22:13.559Z,19.50
2019-05-19T10:24:56.324Z,19.60
2019-05-19T10:27:11.796Z,19.60
2019-05-19T10:29:40.065Z,19.70
2019-05-19T10:32:08.295Z,19.80
2019-05-19T10:34:37.420Z,19.90
2019-05-19T10:37:07.305Z,20.00
2019-05-19T10:39:49.276Z,20.20
2019-05-19T10:42:07.235Z,20.30
2019-05-19T10:44:35.484Z,20.40
2019-05-19T10:47:03.797Z,20.50
2019-05-19T10:49:32.039Z,20.70
2019-05-19T10:52:00.317Z,20.80
2019-05-19T10:54:28.616Z,20.90
2019-05-19T10:56:56.876Z,21.00
2019-05-19T10:59:25.124Z,21.20
2019-05-19T11:01:53.356Z,21.30
2019-05-19T11:04:21.617Z,21.40
2019-05-19T11:06:49.890Z,21.50
2019-05-19T11:09:18.140Z,21.70
2019-05-19T11:11:46.390Z,21.90
2019-05-19T11:14:14.663Z,22.00
2019-05-19T11:16:42.966Z,22.00
2019-05-19T11:19:11.384Z,22.10
2019-05-19T11:21:39.683Z,22.20
2019-05-19T11:24:07.941Z,22.20
2019-05-19T11:26:36.218Z,22.40
2019-05-19T11:29:04.585Z,22.40
2019-05-19T11:31:32.841Z,22.50
2019-05-19T11:34:02.045Z,22.50
2019-05-19T11:36:30.297Z,22.60
2019-05-19T11:39:00.180Z,22.70
2019-05-19T11:41:28.419Z,22.80
2019-05-19T11:43:56.856Z,23.00
2019-05-19T11:46:25.114Z,22.90
2019-05-19T11:48:53.371Z,23.00
2019-05-19T11:51:21.644Z,23.00
2019-05-19T11:53:49.886Z,23.00
2019-05-19T11:56:18.123Z,23.10
2019-05-19T11:58:46.538Z,23.20
2019-05-19T12:01:14.838Z,23.30
2019-05-19T12:03:43.252Z,23.40
2019-05-19T12:06:11.584Z,23.50
2019-05-19T12:08:39.951Z,23.70
2019-05-19T12:11:08.183Z,23.70
2019-05-19T12:13:36.439Z,23.80
2019-05-19T12:16:04.711Z,23.80
2019-05-19T12:18:32.961Z,24.00
2019-05-19T12:21:02.865Z,24.10
2019-05-19T12:23:31.117Z,24.10
2019-05-19T12:25:59.406Z,24.20
2019-05-19T12:28:27.720Z,24.30
2019-05-19T12:30:55.983Z,24.40
2019-05-19T12:33:24.254Z,24.40
2019-05-19T12:35:52.581Z,24.40
2019-05-19T12:38:20.896Z,24.50
2019-05-19T12:40:49.166Z,24.60
2019-05-19T12:43:17.401Z,24.60
2019-05-19T12:45:45.679Z,24.50
2019-05-19T12:48:14.030Z,24.60
2019-05-19T12:50:42.507Z,24.50
2019-05-19T12:53:10.819Z,24.50
2019-05-19T12:55:39.108Z,24.50
2019-05-19T12:58:07.386Z,24.50
2019-05-19T13:00:35.896Z,24.40
2019-05-19T13:03:04.171Z,24.40
2019-05-19T13:05:32.543Z,24.40
2019-05-19T13:08:00.804Z,24.40
2019-05-19T13:10:29.072Z,24.30
2019-05-19T13:12:57.381Z,24.30
2019-05-19T13:15:25.620Z,24.30
2019-05-19T13:17:53.899Z,24.30
2019-05-19T13:20:22.140Z,24.30
2019-05-19T13:22:50.402Z,24.20
2019-05-19T13:25:18.644Z,24.20
2019-05-19T13:27:46.931Z,24.20
2019-05-19T13:30:15.164Z,24.20
2019-05-19T13:32:43.421Z,24.10
2019-05-19T13:35:11.705Z,24.10
2019-05-19T13:37:39.972Z,24.10
2019-05-19T13:40:08.289Z,24.10
2019-05-19T13:42:36.663Z,24.20
2019-05-19T13:45:08.472Z,24.10
2019-05-19T13:47:36.798Z,24.20
2019-05-19T13:50:07.329Z,24.20
2019-05-19T13:52:35.586Z,24.20
2019-05-19T13:55:05.599Z,24.20
2019-05-19T13:57:33.878Z,24.20
2019-05-19T14:00:02.119Z,24.20
2019-05-19T14:02:30.383Z,24.30
2019-05-19T14:04:58.693Z,24.30
2019-05-19T14:07:26.953Z,24.30
2019-05-19T14:09:55.238Z,24.30
2019-05-19T14:12:23.480Z,24.30
2019-05-19T14:14:52.758Z,24.30
2019-05-19T14:17:21.089Z,24.20
2019-05-19T14:19:49.343Z,24.10
2019-05-19T14:22:17.618Z,24.10
2019-05-19T14:24:45.860Z,24.10
2019-05-19T14:27:28.406Z,24.10
2019-05-19T15:39:36.674Z,22.70
2019-05-19T15:42:04.903Z,22.60
2019-05-19T15:44:34.772Z,22.60
2019-05-19T15:47:03.041Z,22.60
2019-05-19T15:49:31.305Z,22.60
2019-05-19T15:52:03.609Z,22.70
2019-05-19T15:54:29.565Z,22.70
2019-05-19T15:56:57.844Z,22.70
2019-05-19T15:59:26.161Z,22.60
2019-05-19T16:01:54.438Z,22.60
2019-05-19T16:04:22.704Z,22.50
2019-05-19T16:06:51.005Z,22.50
2019-05-19T16:09:19.334Z,22.50
2019-05-19T16:11:47.746Z,22.40
2019-05-19T16:14:16.010Z,22.40
2019-05-19T16:16:44.285Z,22.40
2019-05-19T16:19:12.640Z,22.30
2019-05-19T16:21:40.874Z,22.30
2019-05-19T16:24:09.129Z,22.30
2019-05-19T16:26:37.411Z,22.20
2019-05-19T16:29:05.667Z,22.20
2019-05-19T16:31:33.939Z,22.10
2019-05-19T16:34:02.171Z,22.10
2019-05-19T16:36:30.412Z,22.10
2019-05-19T16:38:58.685Z,22.10
2019-05-19T16:41:26.944Z,22.00
2019-05-19T16:43:55.211Z,22.00
2019-05-19T16:46:23.465Z,22.10
2019-05-19T16:48:51.767Z,22.00
2019-05-19T16:51:20.011Z,22.00
2019-05-19T16:53:49.898Z,22.00
2019-05-19T16:56:18.229Z,22.00
2019-05-19T16:58:48.114Z,22.00
2019-05-19T17:01:19.789Z,22.00
2019-05-19T17:03:46.338Z,22.00
2019-05-19T17:06:14.589Z,21.90
2019-05-19T17:08:56.574Z,21.90
2019-05-19T17:11:24.813Z,21.80
2019-05-19T17:13:53.094Z,21.80
2019-05-19T17:16:21.400Z,21.80
2019-05-19T17:18:49.668Z,21.70
2019-05-19T17:21:17.935Z,21.70
2019-05-19T17:23:46.190Z,21.70
2019-05-19T17:26:14.442Z,21.70
2019-05-19T17:28:42.699Z,21.60
2019-05-19T17:31:10.947Z,21.60
2019-05-19T17:33:39.192Z,21.50
2019-05-19T17:36:07.462Z,21.40
2019-05-19T17:38:35.716Z,21.30
2019-05-19T17:41:03.984Z,21.20
2019-05-19T17:43:32.253Z,21.10
2019-05-19T17:46:00.511Z,20.90
2019-05-19T17:48:28.769Z,20.70
2019-05-19T17:50:57.037Z,20.50
2019-05-19T17:53:25.292Z,20.40
2019-05-19T17:55:53.611Z,20.30
2019-05-19T17:58:22.354Z,20.10
2019-05-19T18:00:50.675Z,19.90
2019-05-19T18:03:18.948Z,19.70
2019-05-19T18:05:47.268Z,19.60
2019-05-19T18:08:15.649Z,19.50
2019-05-19T18:10:43.888Z,19.40
2019-05-19T18:13:12.412Z,19.20
2019-05-19T18:15:40.642Z,19.10
2019-05-19T18:18:08.894Z,19.10
2019-05-19T18:20:37.143Z,19.10
2019-05-19T18:23:05.410Z,19.10
2019-05-19T18:25:33.750Z,18.90
2019-05-19T18:28:02.057Z,18.90
2019-05-19T18:30:30.349Z,18.80
2019-05-19T18:32:58.656Z,18.80
2019-05-19T18:35:27.218Z,18.80
2019-05-19T18:37:55.649Z,18.80
2019-05-19T18:40:23.912Z,18.80
2019-05-19T18:42:52.185Z,18.70
2019-05-19T18:45:20.455Z,18.60
2019-05-19T18:47:48.695Z,18.60
2019-05-19T18:50:16.965Z,18.60
2019-05-19T18:52:45.229Z,18.50
2019-05-19T18:55:13.623Z,18.50
2019-05-19T18:57:41.974Z,18.50
2019-05-19T19:00:10.246Z,18.50
2019-05-19T19:02:38.569Z,18.40
2019-05-19T19:05:06.985Z,18.40
2019-05-19T19:07:48.905Z,18.30
2019-05-19T19:10:17.261Z,18.20
2019-05-19T19:12:45.522Z,18.10
2019-05-19T19:15:15.399Z,18.10
2019-05-19T19:17:45.718Z,18.00
2019-05-19T19:20:13.985Z,18.00
2019-05-19T19:22:42.299Z,18.00
2019-05-19T19:25:10.566Z,17.90
2019-05-19T19:27:38.814Z,17.90
2019-05-19T19:30:08.252Z,17.80
2019-05-19T19:32:36.495Z,17.70
2019-05-19T19:35:06.451Z,17.60
2019-05-19T19:37:34.794Z,17.50
2019-05-19T19:40:04.231Z,17.40
2019-05-19T19:42:32.485Z,17.30
2019-05-19T19:45:00.747Z,17.10
2019-05-19T19:47:29.002Z,17.00
2019-05-19T19:49:57.322Z,16.80
2019-05-19T19:52:25.581Z,16.70
2019-05-19T19:54:53.835Z,16.70
2019-05-19T19:57:22.114Z,16.60
2019-05-19T19:59:50.349Z,16.50
2019-05-19T20:02:18.618Z,16.50
2019-05-19T20:04:46.872Z,16.50
2019-05-19T20:07:15.133Z,16.40
2019-05-19T20:09:45.809Z,16.40
2019-05-19T20:12:14.055Z,16.40
2019-05-19T20:14:42.320Z,16.50
2019-05-19T20:17:10.554Z,16.50
2019-05-19T20:19:38.797Z,16.60
2019-05-19T20:22:07.066Z,16.50
2019-05-19T20:24:35.312Z,16.50
2019-05-19T20:27:03.572Z,16.30
2019-05-19T20:29:31.842Z,16.30
2019-05-19T20:32:00.134Z,16.30
2019-05-19T20:34:28.387Z,16.20
2019-05-19T20:36:56.646Z,16.20
2019-05-19T20:39:24.907Z,16.20
2019-05-19T20:41:53.271Z,16.10
2019-05-19T20:44:21.609Z,16.10
2019-05-19T20:46:49.972Z,16.10
2019-05-19T20:49:18.468Z,16.20
2019-05-19T20:51:46.793Z,16.20
2019-05-19T20:54:15.116Z,16.30
2019-05-19T20:56:43.384Z,16.40
2019-05-19T20:59:11.677Z,16.40
2019-05-19T21:01:41.535Z,16.50
2019-05-19T21:04:09.820Z,16.50
2019-05-19T21:06:43.344Z,16.50
2019-05-19T21:12:00.333Z,16.60
2019-05-19T21:14:28.614Z,16.60
2019-05-19T21:16:56.999Z,16.60
2019-05-19T21:19:25.266Z,16.60
2019-05-19T21:21:53.650Z,16.70
2019-05-19T21:24:21.935Z,16.70
2019-05-19T21:26:50.181Z,16.70
2019-05-19T21:29:18.451Z,16.70
2019-05-19T21:31:46.697Z,16.70
2019-05-19T21:34:15.163Z,16.60
2019-05-19T21:36:43.559Z,16.60
2019-05-19T21:39:11.894Z,16.60
2019-05-19T21:41:40.140Z,16.50
2019-05-19T21:44:08.428Z,16.40
2019-05-19T21:46:36.669Z,16.40
2019-05-19T21:49:04.942Z,16.40
2019-05-19T21:51:33.224Z,16.40
2019-05-19T21:54:01.489Z,16.30
2019-05-19T21:56:29.786Z,16.30
2019-05-19T21:58:58.031Z,16.20
2019-05-19T22:01:26.370Z,16.10
2019-05-19T22:03:54.622Z,16.00
2019-05-19T22:06:24.510Z,15.90
2019-05-19T22:08:52.801Z,15.80
2019-05-19T22:11:21.058Z,15.70
2019-05-19T22:13:49.302Z,15.60
2019-05-19T22:16:17.542Z,15.50
2019-05-19T22:18:45.773Z,15.50
2019-05-19T22:21:14.018Z,15.40
2019-05-19T22:23:42.270Z,15.40
2019-05-19T22:26:10.523Z,15.30
2019-05-19T22:28:38.779Z,15.20
2019-05-19T22:31:07.049Z,15.10
2019-05-19T22:33:35.273Z,15.10
2019-05-19T22:36:03.523Z,15.10
2019-05-19T22:38:31.775Z,15.10
2019-05-19T22:41:00.080Z,15.10
2019-05-19T22:43:28.313Z,15.10
2019-05-19T22:45:56.558Z,15.10
2019-05-19T22:48:24.863Z,15.00
2019-05-19T22:50:53.211Z,15.00
2019-05-19T22:53:21.505Z,15.00
2019-05-19T22:55:49.857Z,15.10
2019-05-19T22:58:18.131Z,15.10
2019-05-19T23:00:46.387Z,15.10
2019-05-19T23:03:14.629Z,15.20
2019-05-19T23:05:42.891Z,15.10
2019-05-19T23:08:11.128Z,15.10
2019-05-19T23:10:39.400Z,15.20
2019-05-19T23:13:08.368Z,15.10
2019-05-19T23:15:36.780Z,15.00
2019-05-19T23:18:05.098Z,15.00
2019-05-19T23:20:33.381Z,15.00
2019-05-19T23:23:01.673Z,14.90
2019-05-19T23:25:29.917Z,14.80
2019-05-19T23:27:58.280Z,14.80
2019-05-19T23:30:26.616Z,14.70
2019-05-19T23:32:54.872Z,14.60
2019-05-19T23:35:23.140Z,14.60
2019-05-19T23:37:51.386Z,14.50
2019-05-19T23:40:19.656Z,14.50
2019-05-19T23:42:47.898Z,14.50
2019-05-19T23:45:16.142Z,14.50
2019-05-19T23:47:44.419Z,14.50
2019-05-19T23:50:13.023Z,14.60
2019-05-19T23:52:41.294Z,14.60
2019-05-19T23:55:09.618Z,14.60
2019-05-19T23:57:37.869Z,14.70
